Time;durP1;ratioP1;P1;durP2;ratioP2;P2;SDS_P1;SDS_P2;PMS_P1;PMS_P2;Temp;Humidity;BMP_temperature;BMP_pressure;BME280_temperature;BME280_humidity;BME280_pressure;Samples;Min_cycle;Max_cycle;Signal;HPM_P1;HPM_P2
2023/03/28 00:00:25;;;;;;;18.17;8.38;;;;;;;;;;1035650;28;20036;-21
2023/03/28 00:00:56;;;;;;;16.20;8.20;;;;;;;;;;1036095;28;20159;-20
2023/03/28 00:01:26;;;;;;;12.32;6.35;;;;;;;;;;1036277;28;20029;-22
2023/03/28 00:01:57;;;;;;;9.52;6.03;;;;;;;;;;1036413;28;20026;-22
2023/03/28 00:02:27;;;;;;;17.92;7.18;;;;;;;;;;1035330;28;20088;-21
2023/03/28 00:02:58;;;;;;;16.08;5.50;;;;;;;;;;1036044;28;20053;-20
2023/03/28 00:03:34;;;;;;;13.00;7.05;;;;;;;;;;1035927;28;20029;-23
2023/03/28 00:04:04;;;;;;;15.20;7.43;;;;;;;;;;1036193;28;20482;-22
2023/03/28 00:04:36;;;;;;;13.18;7.63;;;;;;;;;;1035795;28;20040;-23
2023/03/28 00:05:06;;;;;;;28.73;7.90;;;;;;;;;;1035980;28;20140;-21
2023/03/28 00:05:39;;;;;;;20.95;7.50;;;;;;;;;;1035966;28;20529;-18
2023/03/28 00:06:11;;;;;;;13.90;5.70;;;;;;;;;;1036056;28;20030;-22
2023/03/28 00:06:44;;;;;;;22.58;6.30;;;;;;;;;;1035495;28;20469;-20
2023/03/28 00:07:14;;;;;;;15.45;6.35;;;;;;;;;;1035788;28;20467;-23
2023/03/28 00:07:45;;;;;;;12.77;6.70;;;;;;;;;;1035827;28;20022;-18
2023/03/28 00:08:16;;;;;;;22.08;5.32;;;;;;;;;;1036092;28;20068;-21
2023/03/28 00:08:48;;;;;;;17.83;6.88;;;;;;;;;;1035441;28;20371;-23
2023/03/28 00:09:19;;;;;;;27.80;9.27;;;;;;;;;;1035106;28;20038;-20
2023/03/28 00:09:50;;;;;;;23.33;9.43;;;;;;;;;;1036040;28;20030;-21
2023/03/28 00:10:20;;;;;;;17.23;7.50;;;;;;;;;;1036116;28;20060;-22
2023/03/28 00:10:51;;;;;;;11.48;6.07;;;;;;;;;;1035738;28;20095;-20
2023/03/28 00:11:21;;;;;;;21.42;8.68;;;;;;;;;;1036103;28;20033;-18
2023/03/28 00:11:52;;;;;;;15.40;8.52;;;;;;;;;;1035883;28;20428;-22
2023/03/28 00:12:23;;;;;;;20.92;9.65;;;;;;;;;;1035956;28;20022;-19
2023/03/28 00:12:53;;;;;;;20.05;7.30;;;;;;;;;;1035900;28;20402;-19
2023/03/28 00:13:23;;;;;;;15.23;5.35;;;;;;;;;;1036054;28;20536;-21
2023/03/28 00:14:02;;;;;;;14.88;5.20;;;;;;;;;;1035988;28;20018;-23
2023/03/28 00:14:34;;;;;;;17.52;5.80;;;;;;;;;;1035760;28;20028;-19
2023/03/28 00:15:05;;;;;;;10.90;6.05;;;;;;;;;;1034941;28;20108;-22
2023/03/28 00:15:39;;;;;;;18.90;8.63;;;;;;;;;;1035870;28;20021;-21
2023/03/28 00:16:11;;;;;;;10.85;5.80;;;;;;;;;;1036060;28;20052;-21
2023/03/28 00:16:45;;;;;;;15.00;6.28;;;;;;;;;;1035697;28;20029;-19
2023/03/28 00:17:16;;;;;;;12.95;8.77;;;;;;;;;;1035907;28;20413;-20
2023/03/28 00:17:48;;;;;;;31.05;8.60;;;;;;;;;;1035595;28;20038;-19
2023/03/28 00:18:18;;;;;;;10.27;5.32;;;;;;;;;;1036010;28;20025;-18
2023/03/28 00:18:49;;;;;;;9.82;7.28;;;;;;;;;;1035617;28;20036;-23
2023/03/28 00:19:20;;;;;;;17.35;7.85;;;;;;;;;;1036052;28;20398;-23
2023/03/28 00:19:52;;;;;;;12.02;5.75;;;;;;;;;;1035841;28;20034;-20
2023/03/28 00:20:22;;;;;;;17.20;6.70;;;;;;;;;;1036009;28;20026;-20
2023/03/28 00:20:53;;;;;;;16.15;7.75;;;;;;;;;;1035849;28;20091;-21
2023/03/28 00:21:26;;;;;;;11.38;7.70;;;;;;;;;;1035921;28;20032;-21
2023/03/28 00:21:56;;;;;;;12.38;6.05;;;;;;;;;;1036083;28;20398;-22
2023/03/28 00:22:29;;;;;;;21.45;8.60;;;;;;;;;;1035776;28;20064;-18
2023/03/28 00:22:59;;;;;;;15.77;5.55;;;;;;;;;;1035984;28;20025;-20
2023/03/28 00:23:30;;;;;;;21.13;7.95;;;;;;;;;;1035838;28;20446;-21
2023/03/28 00:24:01;;;;;;;25.23;9.23;;;;;;;;;;1036062;28;20415;-17
2023/03/28 00:24:37;;;;;;;26.20;10.13;;;;;;;;;;1035428;28;20500;-20
2023/03/28 00:25:08;;;;;;;29.98;9.35;;;;;;;;;;1035517;28;20064;-19
2023/03/28 00:25:40;;;;;;;9.43;5.60;;;;;;;;;;1035826;28;20394;-20
2023/03/28 00:26:12;;;;;;;20.58;9.82;;;;;;;;;;1035810;28;20026;-19
2023/03/28 00:26:43;;;;;;;18.20;8.88;;;;;;;;;;1034759;28;20033;-20
2023/03/28 00:27:14;;;;;;;16.88;7.65;;;;;;;;;;1035978;28;20508;-22
2023/03/28 00:27:45;;;;;;;15.73;8.35;;;;;;;;;;1035776;28;20021;-18
2023/03/28 00:28:15;;;;;;;15.45;9.15;;;;;;;;;;1036063;28;20470;-21
2023/03/28 00:28:46;;;;;;;24.00;9.70;;;;;;;;;;1035323;28;20378;-20
2023/03/28 00:29:19;;;;;;;22.25;10.55;;;;;;;;;;1035719;28;20079;-22
2023/03/28 00:29:50;;;;;;;28.83;11.68;;;;;;;;;;1034596;28;20030;-21
2023/03/28 00:30:20;;;;;;;23.55;9.05;;;;;;;;;;1035737;28;20733;-22
2023/03/28 00:30:51;;;;;;;38.50;9.02;;;;;;;;;;1035798;28;20030;-22
2023/03/28 00:31:22;;;;;;;20.27;11.60;;;;;;;;;;1035998;28;20030;-21
2023/03/28 00:31:53;;;;;;;25.08;9.75;;;;;;;;;;1035901;28;20026;-23
2023/03/28 00:32:23;;;;;;;17.23;7.85;;;;;;;;;;1035751;28;20072;-22
2023/03/28 00:32:53;;;;;;;17.75;6.25;;;;;;;;;;1034905;28;20545;-21
2023/03/28 00:33:24;;;;;;;33.85;9.55;;;;;;;;;;1035738;28;20461;-21
2023/03/28 00:33:56;;;;;;;26.80;8.90;;;;;;;;;;1035875;28;20045;-20
2023/03/28 00:34:26;;;;;;;19.23;11.63;;;;;;;;;;1035484;28;20030;-22
2023/03/28 00:34:57;;;;;;;24.27;8.27;;;;;;;;;;1035200;28;20076;-22
2023/03/28 00:35:27;;;;;;;23.42;8.80;;;;;;;;;;1035287;28;20112;-19
2023/03/28 00:35:58;;;;;;;10.68;6.78;;;;;;;;;;1035457;28;20108;-19
2023/03/28 00:36:31;;;;;;;20.92;9.05;;;;;;;;;;1035271;28;20030;-18
2023/03/28 00:37:01;;;;;;;16.95;8.38;;;;;;;;;;1035901;28;20076;-20
2023/03/28 00:37:32;;;;;;;19.60;6.80;;;;;;;;;;1035568;28;20080;-21
2023/03/28 00:38:03;;;;;;;18.20;10.20;;;;;;;;;;1035952;28;20117;-20
2023/03/28 00:38:33;;;;;;;18.35;10.30;;;;;;;;;;1034604;28;20060;-17
2023/03/28 00:39:09;;;;;;;16.15;7.47;;;;;;;;;;1035138;28;20022;-22
2023/03/28 00:39:39;;;;;;;18.52;7.93;;;;;;;;;;1035183;28;20501;-21
2023/03/28 00:40:10;;;;;;;18.75;8.73;;;;;;;;;;1035784;28;20033;-20
2023/03/28 00:40:40;;;;;;;20.05;10.02;;;;;;;;;;1035690;28;20033;-18
2023/03/28 00:41:14;;;;;;;25.42;7.72;;;;;;;;;;1036020;28;20030;-20
2023/03/28 00:41:45;;;;;;;16.88;7.35;;;;;;;;;;1035645;28;20032;-22
2023/03/28 00:42:16;;;;;;;27.35;10.13;;;;;;;;;;1035857;28;20025;-22
2023/03/28 00:42:46;;;;;;;15.25;7.00;;;;;;;;;;1035374;28;20466;-18
2023/03/28 00:43:33;;;;;;;17.30;10.10;;;;;;;;;;1035964;28;20065;-22
2023/03/28 00:44:23;;;;;;;12.45;6.65;;;;;;;;;;1035836;28;20381;-20
2023/03/28 00:44:57;;;;;;;12.45;6.57;;;;;;;;;;1033746;28;20041;-21
2023/03/28 00:45:28;;;;;;;22.25;7.15;;;;;;;;;;1034988;28;20024;-21
2023/03/28 00:45:58;;;;;;;39.47;12.43;;;;;;;;;;1036007;28;20461;-20
2023/03/28 00:46:29;;;;;;;14.13;10.00;;;;;;;;;;1035759;28;20033;-20
2023/03/28 00:46:59;;;;;;;20.33;11.35;;;;;;;;;;1035708;28;20040;-21
2023/03/28 00:47:36;;;;;;;21.13;8.98;;;;;;;;;;1035499;28;20064;-19
2023/03/28 00:48:12;;;;;;;17.30;9.13;;;;;;;;;;1035897;28;20022;-20
2023/03/28 00:48:47;;;;;;;21.77;11.80;;;;;;;;;;1035158;28;20505;-22
2023/03/28 00:49:20;;;;;;;22.02;11.20;;;;;;;;;;1035755;28;20049;-22
2023/03/28 00:49:59;;;;;;;31.58;12.00;;;;;;;;;;1034820;28;20495;-19
2023/03/28 00:50:35;;;;;;;22.90;13.70;;;;;;;;;;1035273;28;20022;-21
2023/03/28 00:51:07;;;;;;;37.75;14.88;;;;;;;;;;1035550;28;20034;-19
2023/03/28 00:51:40;;;;;;;26.65;12.82;;;;;;;;;;1035132;28;20501;-21
2023/03/28 00:52:12;;;;;;;55.45;13.07;;;;;;;;;;1035953;28;20057;-21
2023/03/28 00:52:45;;;;;;;34.20;13.68;;;;;;;;;;1035210;28;20026;-21
2023/03/28 00:53:19;;;;;;;37.58;16.73;;;;;;;;;;1035820;28;20049;-18
2023/03/28 00:53:51;;;;;;;31.77;16.08;;;;;;;;;;1035597;28;20030;-22
2023/03/28 00:54:23;;;;;;;29.67;16.08;;;;;;;;;;1035888;28;20026;-20
2023/03/28 00:54:56;;;;;;;25.88;13.85;;;;;;;;;;1035718;28;20026;-21
2023/03/28 00:55:32;;;;;;;26.83;15.43;;;;;;;;;;1035470;28;20069;-20
2023/03/28 00:56:06;;;;;;;32.00;12.88;;;;;;;;;;1036020;28;20034;-22
2023/03/28 00:56:37;;;;;;;45.72;15.50;;;;;;;;;;1035056;28;20026;-19
2023/03/28 00:57:08;;;;;;;35.40;16.50;;;;;;;;;;1035567;28;20076;-19
2023/03/28 00:57:40;;;;;;;34.97;16.40;;;;;;;;;;1035670;28;21254;-19
2023/03/28 00:58:12;;;;;;;55.47;17.98;;;;;;;;;;1035901;28;20436;-21
2023/03/28 00:58:46;;;;;;;42.20;19.88;;;;;;;;;;1035197;28;20018;-21
2023/03/28 00:59:22;;;;;;;47.15;18.42;;;;;;;;;;1035424;28;20041;-21
2023/03/28 00:59:53;;;;;;;39.45;18.92;;;;;;;;;;1035661;28;20017;-20
2023/03/28 01:00:23;;;;;;;42.95;16.13;;;;;;;;;;1035256;28;21226;-22
2023/03/28 01:00:54;;;;;;;31.38;16.38;;;;;;;;;;1035006;28;20513;-20
2023/03/28 01:01:25;;;;;;;49.47;17.77;;;;;;;;;;1035427;28;20500;-21
2023/03/28 01:01:56;;;;;;;42.08;17.00;;;;;;;;;;1035765;28;20087;-20
2023/03/28 01:02:26;;;;;;;47.03;16.80;;;;;;;;;;1034969;28;20083;-20
2023/03/28 01:02:57;;;;;;;30.98;14.10;;;;;;;;;;1035228;28;20040;-22
2023/03/28 01:03:32;;;;;;;56.67;18.13;;;;;;;;;;1035103;28;20470;-22
2023/03/28 01:04:03;;;;;;;39.08;13.85;;;;;;;;;;1034985;28;20494;-18
2023/03/28 01:04:35;;;;;;;47.38;16.13;;;;;;;;;;1033824;28;20065;-21
2023/03/28 01:05:07;;;;;;;105.15;38.85;;;;;;;;;;1034316;28;20080;-20
2023/03/28 01:05:39;;;;;;;114.57;49.25;;;;;;;;;;1035181;28;20033;-20
2023/03/28 01:06:10;;;;;;;101.35;41.28;;;;;;;;;;1035495;28;20536;-21
2023/03/28 01:06:45;;;;;;;108.60;35.22;;;;;;;;;;1035164;28;20293;-19
2023/03/28 01:07:15;;;;;;;91.50;39.55;;;;;;;;;;1034569;28;20029;-20
2023/03/28 01:07:48;;;;;;;91.50;35.10;;;;;;;;;;1035397;28;20040;-23
2023/03/28 01:08:25;;;;;;;66.45;30.73;;;;;;;;;;1036574;28;20404;-23
2023/03/28 01:08:56;;;;;;;77.65;32.75;;;;;;;;;;1034766;28;20535;-18
2023/03/28 01:09:27;;;;;;;80.93;30.73;;;;;;;;;;1035415;28;20139;-20
2023/03/28 01:09:58;;;;;;;58.17;24.65;;;;;;;;;;1035198;28;20060;-22
2023/03/28 01:10:30;;;;;;;57.85;25.38;;;;;;;;;;1035620;28;20021;-21
2023/03/28 01:11:01;;;;;;;48.38;24.10;;;;;;;;;;1035400;28;20113;-19
2023/03/28 01:11:34;;;;;;;54.53;22.17;;;;;;;;;;1034930;28;20032;-22
2023/03/28 01:12:04;;;;;;;35.47;15.60;;;;;;;;;;1034286;28;20057;-22
2023/03/28 01:12:35;;;;;;;53.55;23.20;;;;;;;;;;1035241;28;20026;-17
2023/03/28 01:13:06;;;;;;;52.58;23.80;;;;;;;;;;1035545;28;20029;-22
2023/03/28 01:13:38;;;;;;;43.47;19.05;;;;;;;;;;1035517;28;20128;-20
2023/03/28 01:14:12;;;;;;;43.22;17.42;;;;;;;;;;1035571;28;20036;-21
2023/03/28 01:14:42;;;;;;;50.28;18.42;;;;;;;;;;1034877;28;20490;-18
2023/03/28 01:15:13;;;;;;;40.67;17.63;;;;;;;;;;1035203;28;20033;-21
2023/03/28 01:15:44;;;;;;;70.20;23.50;;;;;;;;;;1033955;28;20026;-18
2023/03/28 01:16:16;;;;;;;59.05;22.00;;;;;;;;;;1035412;28;20034;-20
2023/03/28 01:16:48;;;;;;;57.10;22.90;;;;;;;;;;1035182;28;20026;-23
2023/03/28 01:17:18;;;;;;;65.88;23.98;;;;;;;;;;1033085;28;20394;-19
2023/03/28 01:17:49;;;;;;;68.00;19.92;;;;;;;;;;1035429;28;20176;-22
2023/03/28 01:18:24;;;;;;;66.75;24.38;;;;;;;;;;1035225;28;20026;-22
2023/03/28 01:18:55;;;;;;;59.97;22.20;;;;;;;;;;1034478;28;21100;-21
2023/03/28 01:19:49;;;;;;;57.08;23.38;;;;;;;;;;1032451;28;20037;-20
2023/03/28 01:20:38;;;;;;;61.55;19.63;;;;;;;;;;1034453;28;21655;-18
2023/03/28 01:21:19;;;;;;;74.30;20.88;;;;;;;;;;1035317;28;20537;-21
2023/03/28 01:21:52;;;;;;;;;;;;;;;;;;1035602;28;20061;-21
2023/03/28 01:22:29;;;;;;;49.05;20.17;;;;;;;;;;1034231;28;20297;-22
2023/03/28 01:23:12;;;;;;;55.75;21.55;;;;;;;;;;1034872;28;20350;-20
2023/03/28 01:23:48;;;;;;;54.60;20.98;;;;;;;;;;1035043;28;20033;-19
2023/03/28 01:24:38;;;;;;;56.50;19.35;;;;;;;;;;1034189;28;20034;-18
2023/03/28 01:25:20;;;;;;;42.47;16.83;;;;;;;;;;1033590;28;20026;-22
2023/03/28 01:26:09;;;;;;;49.13;16.67;;;;;;;;;;1033252;28;20253;-23
2023/03/28 01:26:43;;;;;;;52.97;16.95;;;;;;;;;;1030625;28;20033;-20
2023/03/28 01:27:17;;;;;;;61.83;22.13;;;;;;;;;;1033515;28;20029;-21
2023/03/28 01:27:53;;;;;;;48.85;18.75;;;;;;;;;;1033267;28;20204;-18
2023/03/28 01:28:50;;;;;;;37.17;16.05;;;;;;;;;;1034054;28;21268;-19
2023/03/28 01:29:24;;;;;;;29.50;13.77;;;;;;;;;;1034879;28;20026;-19
2023/03/28 01:30:08;;;;;;;38.10;16.13;;;;;;;;;;1033960;28;20450;-20
2023/03/28 01:30:48;;;;;;;37.63;16.67;;;;;;;;;;1033066;28;20036;-21
2023/03/28 01:31:42;;;;;;;18.77;8.55;;;;;;;;;;1034803;28;20040;-21
2023/03/28 01:32:15;;;;;;;31.88;10.73;;;;;;;;;;1034154;28;20032;-22
2023/03/28 01:32:51;;;;;;;34.05;12.98;;;;;;;;;;1034945;28;20026;-22
2023/03/28 01:33:38;;;;;;;28.75;13.85;;;;;;;;;;1035303;28;20026;-23
2023/03/28 01:34:08;;;;;;;19.85;9.40;;;;;;;;;;1032191;28;20029;-22
2023/03/28 01:34:57;;;;;;;24.45;12.13;;;;;;;;;;1032900;28;20716;-20
2023/03/28 01:35:32;;;;;;;15.13;10.85;;;;;;;;;;1034298;28;20041;-21
2023/03/28 01:36:21;;;;;;;43.92;14.45;;;;;;;;;;1034604;28;20083;-22
2023/03/28 01:36:55;;;;;;;26.58;9.73;;;;;;;;;;1034095;28;20030;-21
2023/03/28 01:37:31;;;;;;;18.85;7.63;;;;;;;;;;1034893;28;20030;-21
2023/03/28 01:38:20;;;;;;;21.20;10.40;;;;;;;;;;1035370;28;20025;-20
2023/03/28 01:38:59;;;;;;;13.10;6.40;;;;;;;;;;1033163;28;20592;-20
2023/03/28 01:39:48;;;;;;;18.15;9.65;;;;;;;;;;1034388;28;20032;-20
2023/03/28 01:40:24;;;;;;;15.98;7.22;;;;;;;;;;1034541;28;20077;-20
2023/03/28 01:41:04;;;;;;;19.48;7.72;;;;;;;;;;1034055;28;20030;-22
2023/03/28 01:41:46;;;;;;;16.27;8.70;;;;;;;;;;1034466;28;20029;-21
2023/03/28 01:42:30;;;;;;;13.43;6.35;;;;;;;;;;1034339;28;20160;-23
2023/03/28 01:43:19;;;;;;;10.75;7.35;;;;;;;;;;1034906;28;20063;-22
2023/03/28 01:43:53;;;;;;;20.35;7.60;;;;;;;;;;1034622;28;20026;-20
2023/03/28 01:44:23;;;;;;;19.27;8.40;;;;;;;;;;1034490;28;20080;-19
2023/03/28 01:45:05;;;;;;;14.73;3.85;;;;;;;;;;1034830;28;20506;-21
2023/03/28 01:45:50;;;;;;;20.48;4.85;;;;;;;;;;1033998;28;20030;-21
2023/03/28 01:46:33;;;;;;;12.70;5.53;;;;;;;;;;1035118;28;20030;-23
2023/03/28 01:47:14;;;;;;;5.82;4.03;;;;;;;;;;1034152;28;20057;-21
2023/03/28 01:47:53;;;;;;;15.07;5.93;;;;;;;;;;1035091;28;20025;-20
2023/03/28 01:48:35;;;;;;;10.75;7.28;;;;;;;;;;1034416;28;20479;-21
2023/03/28 01:49:05;;;;;;;10.52;6.38;;;;;;;;;;1035099;28;20553;-20
2023/03/28 01:49:51;;;;;;;7.22;4.90;;;;;;;;;;1033784;28;20057;-20
2023/03/28 01:50:26;;;;;;;6.45;3.47;;;;;;;;;;1032883;28;20718;-22
2023/03/28 01:51:15;;;;;;;6.63;4.13;;;;;;;;;;1034311;28;20037;-22
2023/03/28 01:51:50;;;;;;;11.90;5.78;;;;;;;;;;1033975;28;20072;-20
2023/03/28 01:52:21;;;;;;;16.00;5.68;;;;;;;;;;1033709;28;20095;-19
2023/03/28 01:52:51;;;;;;;6.57;4.50;;;;;;;;;;1033061;28;20100;-19
2023/03/28 01:53:36;;;;;;;8.48;4.88;;;;;;;;;;1032843;28;20034;-20
2023/03/28 01:54:13;;;;;;;16.33;5.20;;;;;;;;;;1033106;28;20484;-21
2023/03/28 01:54:44;;;;;;;7.18;4.65;;;;;;;;;;1033129;28;20079;-20
2023/03/28 01:55:33;;;;;;;10.57;5.65;;;;;;;;;;1032250;28;20514;-21
2023/03/28 01:56:03;;;;;;;18.10;7.90;;;;;;;;;;1033677;28;20083;-21
2023/03/28 01:56:40;;;;;;;9.20;4.97;;;;;;;;;;1032863;28;20029;-19
2023/03/28 01:57:12;;;;;;;21.88;6.97;;;;;;;;;;1033805;28;20038;-21
2023/03/28 01:57:46;;;;;;;12.13;6.13;;;;;;;;;;1034068;28;20018;-22
2023/03/28 01:58:16;;;;;;;7.97;4.25;;;;;;;;;;1033351;28;20030;-23
2023/03/28 01:58:55;;;;;;;7.93;5.22;;;;;;;;;;1033135;28;20482;-18
2023/03/28 01:59:32;;;;;;;14.13;5.75;;;;;;;;;;1034190;28;20428;-21
2023/03/28 02:00:12;;;;;;;13.57;6.35;;;;;;;;;;1034852;28;20564;-17
2023/03/28 02:00:46;;;;;;;12.00;5.93;;;;;;;;;;1033157;28;20487;-23
2023/03/28 02:01:23;;;;;;;14.43;6.72;;;;;;;;;;1034086;28;20068;-21
2023/03/28 02:02:00;;;;;;;13.63;6.18;;;;;;;;;;1034265;28;20033;-22
2023/03/28 02:02:37;;;;;;;12.13;6.70;;;;;;;;;;1032513;28;20022;-22
2023/03/28 02:03:20;;;;;;;9.48;6.35;;;;;;;;;;1033736;28;20109;-23
2023/03/28 02:03:53;;;;;;;9.48;4.45;;;;;;;;;;1034671;28;20052;-21
2023/03/28 02:04:25;;;;;;;15.27;6.20;;;;;;;;;;1034663;28;20033;-20
2023/03/28 02:04:57;;;;;;;10.05;3.90;;;;;;;;;;1034121;28;20014;-21
2023/03/28 02:05:30;;;;;;;13.75;8.50;;;;;;;;;;1033177;28;20029;-22
2023/03/28 02:06:03;;;;;;;33.17;6.85;;;;;;;;;;1034968;28;20021;-21
2023/03/28 02:06:35;;;;;;;9.07;5.25;;;;;;;;;;1034056;28;20022;-22
2023/03/28 02:07:07;;;;;;;8.20;4.47;;;;;;;;;;1034390;28;20033;-22
2023/03/28 02:07:40;;;;;;;6.47;4.00;;;;;;;;;;1033265;28;20064;-23
2023/03/28 02:08:12;;;;;;;14.13;7.38;;;;;;;;;;1034851;28;20579;-20
2023/03/28 02:08:43;;;;;;;32.78;6.68;;;;;;;;;;1034480;28;20145;-21
2023/03/28 02:09:15;;;;;;;15.73;5.75;;;;;;;;;;1034753;28;20034;-21
2023/03/28 02:09:46;;;;;;;11.13;5.10;;;;;;;;;;1034258;28;20026;-23
2023/03/28 02:10:20;;;;;;;17.95;6.80;;;;;;;;;;1034406;28;20125;-20
2023/03/28 02:10:52;;;;;;;10.05;6.95;;;;;;;;;;1034461;28;20037;-22
2023/03/28 02:11:24;;;;;;;5.43;4.10;;;;;;;;;;1033415;28;20112;-22
2023/03/28 02:12:05;;;;;;;11.90;7.22;;;;;;;;;;1034279;28;20033;-21
2023/03/28 02:12:39;;;;;;;8.85;5.45;;;;;;;;;;1033536;28;20089;-22
2023/03/28 02:13:12;;;;;;;4.93;4.18;;;;;;;;;;1033813;28;20196;-22
2023/03/28 02:13:45;;;;;;;9.43;5.03;;;;;;;;;;1032620;28;20026;-23
2023/03/28 02:14:19;;;;;;;5.68;4.07;;;;;;;;;;1033359;28;20084;-21
2023/03/28 02:14:50;;;;;;;11.38;4.35;;;;;;;;;;1034421;28;20025;-21
2023/03/28 02:15:23;;;;;;;12.13;4.88;;;;;;;;;;1033992;28;20029;-20
2023/03/28 02:15:55;;;;;;;11.20;5.43;;;;;;;;;;1031202;28;20021;-21
2023/03/28 02:16:25;;;;;;;8.82;5.65;;;;;;;;;;1031867;28;20522;-19
2023/03/28 02:17:00;;;;;;;22.80;5.28;;;;;;;;;;1032909;28;20712;-21
2023/03/28 02:17:33;;;;;;;20.05;6.10;;;;;;;;;;1035754;28;20234;-23
2023/03/28 02:18:07;;;;;;;14.43;5.53;;;;;;;;;;1040025;28;20112;-21
2023/03/28 02:18:39;;;;;;;9.57;4.47;;;;;;;;;;1040466;28;20033;-21
2023/03/28 02:19:11;;;;;;;11.60;6.18;;;;;;;;;;1039439;28;20407;-23
2023/03/28 02:19:49;;;;;;;9.13;6.35;;;;;;;;;;1033293;28;20025;-22
2023/03/28 02:20:23;;;;;;;8.43;6.00;;;;;;;;;;1033870;28;20030;-22
2023/03/28 02:20:56;;;;;;;12.75;6.20;;;;;;;;;;1032738;28;20084;-22
2023/03/28 02:21:30;;;;;;;9.20;5.00;;;;;;;;;;1031815;28;20022;-21
2023/03/28 02:22:25;;;;;;;9.65;6.97;;;;;;;;;;1034092;28;20125;-21
2023/03/28 02:23:10;;;;;;;14.98;7.00;;;;;;;;;;1035204;28;20021;-19
2023/03/28 02:23:51;;;;;;;7.07;5.50;;;;;;;;;;1032003;28;20037;-22
2023/03/28 02:24:22;;;;;;;26.40;7.32;;;;;;;;;;1033353;28;20026;-21
2023/03/28 02:24:52;;;;;;;17.45;7.25;;;;;;;;;;1032256;28;20026;-23
2023/03/28 02:25:23;;;;;;;10.25;5.75;;;;;;;;;;1034081;28;20030;-19
2023/03/28 02:25:53;;;;;;;25.20;7.63;;;;;;;;;;1033677;28;20030;-19
2023/03/28 02:26:24;;;;;;;15.23;7.00;;;;;;;;;;1032948;28;20117;-21
2023/03/28 02:26:55;;;;;;;25.45;6.35;;;;;;;;;;1033944;28;20041;-21
2023/03/28 02:27:27;;;;;;;10.52;5.28;;;;;;;;;;1034062;28;20129;-20
2023/03/28 02:28:00;;;;;;;13.98;7.60;;;;;;;;;;1033875;28;20547;-20
2023/03/28 02:28:31;;;;;;;9.50;6.85;;;;;;;;;;1033711;28;20382;-17
2023/03/28 02:29:02;;;;;;;7.55;5.18;;;;;;;;;;1033604;28;20036;-19
2023/03/28 02:29:37;;;;;;;9.98;6.38;;;;;;;;;;1032882;28;20037;-21
2023/03/28 02:30:08;;;;;;;16.30;5.88;;;;;;;;;;1034068;28;20034;-20
2023/03/28 02:30:39;;;;;;;14.65;8.45;;;;;;;;;;1035507;28;20501;-22
2023/03/28 02:31:12;;;;;;;17.73;7.38;;;;;;;;;;1034550;28;20080;-22
2023/03/28 02:31:43;;;;;;;14.68;6.80;;;;;;;;;;1031401;28;20501;-22
2023/03/28 02:32:14;;;;;;;14.98;6.18;;;;;;;;;;1032121;28;20080;-22
2023/03/28 02:32:48;;;;;;;9.85;5.18;;;;;;;;;;1033938;28;20026;-18
2023/03/28 02:33:37;;;;;;;15.00;5.50;;;;;;;;;;1033941;28;20026;-21
2023/03/28 02:34:09;;;;;;;13.40;6.53;;;;;;;;;;1031617;28;20034;-20
2023/03/28 02:34:40;;;;;;;11.95;5.70;;;;;;;;;;1031054;28;20355;-20
2023/03/28 02:35:11;;;;;;;9.80;6.25;;;;;;;;;;1033553;28;20096;-18
2023/03/28 02:36:00;;;;;;;14.35;5.55;;;;;;;;;;1032038;28;20720;-19
2023/03/28 02:36:34;;;;;;;14.93;6.57;;;;;;;;;;1029467;28;20153;-22
2023/03/28 02:37:34;;;;;;;9.38;6.38;;;;;;;;;;1029878;28;20132;-22
2023/03/28 02:38:04;;;;;;;;;;;;;;;;;;1023057;28;20069;-21
2023/03/28 02:38:35;;;;;;;9.82;5.70;;;;;;;;;;1033109;28;20384;-22
2023/03/28 02:39:15;;;;;;;21.10;6.15;;;;;;;;;;1033254;28;20025;-23
2023/03/28 02:39:51;;;;;;;10.50;5.22;;;;;;;;;;1032494;28;20026;-21
2023/03/28 02:40:32;;;;;;;22.30;5.50;;;;;;;;;;1033430;28;20026;-23
2023/03/28 02:41:23;;;;;;;22.77;6.03;;;;;;;;;;1033224;28;20069;-21
2023/03/28 02:41:57;;;;;;;8.90;6.38;;;;;;;;;;1031327;28;20970;-21
2023/03/28 02:42:33;;;;;;;12.07;6.28;;;;;;;;;;1032435;28;20128;-22
2023/03/28 02:43:43;;;;;;;13.50;5.45;;;;;;;;;;1031879;28;20797;-22
2023/03/28 02:44:13;;;;;;;;;;;;;;;;;;1028634;28;20042;-19
2023/03/28 02:45:03;;;;;;;10.73;5.65;;;;;;;;;;1027052;28;20000;-20
2023/03/28 02:45:49;;;;;;;16.75;7.40;;;;;;;;;;1028608;28;20026;-21
2023/03/28 02:46:45;;;;;;;26.60;5.85;;;;;;;;;;1025675;28;20034;-21
2023/03/28 02:47:19;;;;;;;12.90;7.50;;;;;;;;;;1020544;28;20642;-22
2023/03/28 02:47:53;;;;;;;18.17;6.63;;;;;;;;;;1021011;28;20114;-23
2023/03/28 02:48:39;;;;;;;13.80;5.43;;;;;;;;;;1027377;28;20093;-23
2023/03/28 02:49:21;;;;;;;21.30;5.90;;;;;;;;;;1029314;28;20033;-21
2023/03/28 02:49:54;;;;;;;9.63;5.00;;;;;;;;;;1029299;28;20156;-22
2023/03/28 02:50:34;;;;;;;23.00;7.22;;;;;;;;;;1032361;28;20084;-23
2023/03/28 02:51:07;;;;;;;12.38;6.00;;;;;;;;;;1031359;28;20073;-22
2023/03/28 02:51:57;;;;;;;14.13;7.18;;;;;;;;;;1031857;28;20096;-23
2023/03/28 02:52:40;;;;;;;8.50;6.10;;;;;;;;;;1027525;28;20060;-21
2023/03/28 02:53:11;;;;;;;39.25;6.82;;;;;;;;;;1030724;28;20026;-24
2023/03/28 02:53:50;;;;;;;24.02;8.65;;;;;;;;;;1032569;28;20034;-21
2023/03/28 02:54:32;;;;;;;14.37;5.53;;;;;;;;;;1033313;28;20029;-22
2023/03/28 02:55:11;;;;;;;12.48;5.40;;;;;;;;;;1031790;28;20359;-22
2023/03/28 02:55:53;;;;;;;15.30;4.63;;;;;;;;;;1033166;28;20080;-22
2023/03/28 02:56:26;;;;;;;12.32;7.35;;;;;;;;;;1032914;28;20026;-22
2023/03/28 02:57:05;;;;;;;12.25;7.80;;;;;;;;;;1029721;28;20080;-21
2023/03/28 02:57:45;;;;;;;18.85;6.88;;;;;;;;;;1031245;28;20025;-23
2023/03/28 02:58:39;;;;;;;17.75;6.28;;;;;;;;;;1029343;28;20057;-22
2023/03/28 02:59:25;;;;;;;26.73;11.02;;;;;;;;;;1031262;28;20021;-24
2023/03/28 03:00:11;;;;;;;18.98;6.97;;;;;;;;;;1032356;28;20033;-24
2023/03/28 03:00:44;;;;;;;10.50;6.70;;;;;;;;;;1033591;28;20137;-22
2023/03/28 03:01:40;;;;;;;15.77;8.52;;;;;;;;;;1028943;28;20573;-21
2023/03/28 03:02:21;;;;;;;8.73;5.00;;;;;;;;;;1029927;28;20499;-23
2023/03/28 03:03:04;;;;;;;11.82;6.20;;;;;;;;;;1029030;28;20029;-22
2023/03/28 03:03:48;;;;;;;13.10;5.70;;;;;;;;;;1027563;28;20041;-23
2023/03/28 03:04:28;;;;;;;14.63;7.97;;;;;;;;;;1025041;28;20030;-21
2023/03/28 03:05:08;;;;;;;9.60;5.30;;;;;;;;;;1022028;28;20904;-21
2023/03/28 03:05:40;;;;;;;14.73;7.72;;;;;;;;;;1028139;28;20089;-21
2023/03/28 03:06:11;;;;;;;11.23;7.20;;;;;;;;;;1027568;28;20030;-22
2023/03/28 03:06:44;;;;;;;13.63;6.60;;;;;;;;;;1027919;28;20062;-21
2023/03/28 03:07:16;;;;;;;11.52;7.10;;;;;;;;;;1028273;28;20034;-22
2023/03/28 03:07:51;;;;;;;13.40;6.65;;;;;;;;;;1029083;28;20696;-21
2023/03/28 03:08:23;;;;;;;11.52;7.10;;;;;;;;;;1028804;28;20030;-21
2023/03/28 03:08:57;;;;;;;9.98;5.65;;;;;;;;;;1027949;28;20030;-21
2023/03/28 03:09:30;;;;;;;19.05;6.93;;;;;;;;;;1029098;28;20101;-21
2023/03/28 03:10:05;;;;;;;15.65;5.80;;;;;;;;;;1027988;28;20085;-20
2023/03/28 03:10:38;;;;;;;16.60;7.85;;;;;;;;;;1029657;28;20124;-22
2023/03/28 03:11:10;;;;;;;10.85;5.40;;;;;;;;;;1031023;28;20020;-23
2023/03/28 03:11:46;;;;;;;19.42;8.20;;;;;;;;;;1027125;28;20033;-21
2023/03/28 03:12:20;;;;;;;14.88;6.68;;;;;;;;;;1022235;28;20033;-23
2023/03/28 03:12:53;;;;;;;16.23;8.13;;;;;;;;;;1023054;28;20117;-22
2023/03/28 03:13:25;;;;;;;17.42;7.25;;;;;;;;;;1022237;28;20037;-24
2023/03/28 03:13:59;;;;;;;9.13;4.70;;;;;;;;;;1024533;28;20113;-21
2023/03/28 03:14:29;;;;;;;21.00;7.18;;;;;;;;;;1025799;28;20038;-19
2023/03/28 03:15:00;;;;;;;13.25;5.70;;;;;;;;;;1029580;28;20137;-21
2023/03/28 03:15:31;;;;;;;14.32;6.35;;;;;;;;;;1033191;28;20398;-23
2023/03/28 03:16:04;;;;;;;10.90;6.00;;;;;;;;;;1033114;28;20133;-21
2023/03/28 03:16:37;;;;;;;24.75;8.20;;;;;;;;;;1033176;28;20026;-23
2023/03/28 03:17:12;;;;;;;10.25;5.75;;;;;;;;;;1033476;28;20034;-21
2023/03/28 03:17:43;;;;;;;15.07;6.68;;;;;;;;;;1033697;28;20037;-22
2023/03/28 03:18:15;;;;;;;17.80;5.90;;;;;;;;;;1033995;28;20061;-23
2023/03/28 03:18:48;;;;;;;18.77;7.57;;;;;;;;;;1032438;28;20131;-24
2023/03/28 03:19:19;;;;;;;15.38;7.55;;;;;;;;;;1032592;28;20033;-23
2023/03/28 03:19:49;;;;;;;13.13;4.90;;;;;;;;;;1033951;28;20036;-23
2023/03/28 03:20:21;;;;;;;10.52;4.95;;;;;;;;;;1034865;28;20030;-23
2023/03/28 03:20:54;;;;;;;9.73;7.00;;;;;;;;;;1034004;28;20639;-20
2023/03/28 03:21:27;;;;;;;21.40;6.70;;;;;;;;;;1033882;28;20030;-23
2023/03/28 03:22:00;;;;;;;15.75;6.55;;;;;;;;;;1033124;28;20053;-22
2023/03/28 03:22:35;;;;;;;14.48;7.38;;;;;;;;;;1033470;28;20069;-19
2023/03/28 03:23:07;;;;;;;10.15;5.90;;;;;;;;;;1028152;28;20505;-23
2023/03/28 03:23:39;;;;;;;9.02;6.18;;;;;;;;;;1028804;28;20409;-23
2023/03/28 03:24:10;;;;;;;11.48;5.22;;;;;;;;;;1032561;28;20463;-22
2023/03/28 03:24:41;;;;;;;21.08;5.15;;;;;;;;;;1033132;28;20041;-22
2023/03/28 03:25:11;;;;;;;12.88;6.97;;;;;;;;;;1030872;28;20026;-21
2023/03/28 03:25:42;;;;;;;10.93;5.55;;;;;;;;;;1032141;28;20717;-23
2023/03/28 03:26:12;;;;;;;17.27;6.70;;;;;;;;;;1032468;28;20474;-21